createdAt,value
2018-09-20T00:01:09.955Z,23.17
2018-09-20T00:03:38.394Z,20.27
2018-09-20T00:06:06.853Z,17.20
2018-09-20T00:08:35.321Z,18.13
2018-09-20T00:11:03.789Z,20.20
2018-09-20T00:13:32.264Z,19.27
2018-09-20T00:16:00.725Z,20.03
2018-09-20T00:18:29.177Z,17.87
2018-09-20T00:20:57.616Z,19.47
2018-09-20T00:23:26.063Z,25.73
2018-09-20T00:25:54.509Z,21.67
2018-09-20T00:28:22.943Z,20.33
2018-09-20T00:30:51.391Z,17.60
2018-09-20T00:33:19.866Z,24.43
2018-09-20T00:35:48.285Z,24.40
2018-09-20T00:38:16.765Z,23.27
2018-09-20T00:40:45.197Z,21.33
2018-09-20T00:43:13.607Z,26.43
2018-09-20T00:45:42.092Z,21.77
2018-09-20T00:48:10.514Z,21.97
2018-09-20T00:50:38.936Z,23.53
2018-09-20T00:53:07.464Z,21.03
2018-09-20T00:55:35.904Z,26.90
2018-09-20T00:58:04.355Z,23.03
2018-09-20T01:00:38.394Z,18.53
2018-09-20T01:03:06.900Z,24.67
2018-09-20T01:05:35.336Z,20.33
2018-09-20T01:08:03.776Z,25.20
2018-09-20T01:10:32.254Z,24.93
2018-09-20T01:13:00.694Z,25.77
2018-09-20T01:15:29.112Z,22.93
2018-09-20T01:17:57.541Z,23.37
2018-09-20T01:20:26.028Z,24.67
2018-09-20T01:22:54.468Z,25.00
2018-09-20T01:25:22.950Z,23.37
2018-09-20T01:27:51.387Z,30.57
2018-09-20T01:30:19.849Z,22.60
2018-09-20T01:32:48.332Z,23.57
2018-09-20T01:35:16.814Z,24.87
2018-09-20T01:37:45.229Z,22.13
2018-09-20T01:40:13.661Z,25.27
2018-09-20T01:42:42.077Z,20.17
2018-09-20T01:45:10.499Z,25.13
2018-09-20T01:47:38.937Z,21.10
2018-09-20T01:50:07.417Z,24.13
2018-09-20T01:52:35.843Z,23.20
2018-09-20T01:55:04.371Z,26.63
2018-09-20T01:57:32.787Z,26.23
2018-09-20T02:00:01.228Z,22.80
2018-09-20T02:02:29.674Z,22.17
2018-09-20T02:04:58.101Z,26.90
2018-09-20T02:07:26.522Z,24.27
2018-09-20T02:09:54.938Z,22.43
2018-09-20T02:12:23.419Z,23.90
2018-09-20T02:14:51.839Z,20.93
2018-09-20T02:17:20.314Z,30.00
2018-09-20T02:19:48.742Z,21.83
2018-09-20T02:22:17.157Z,22.90
2018-09-20T02:24:45.559Z,19.23
2018-09-20T02:27:13.978Z,21.97
2018-09-20T02:29:42.415Z,22.03
2018-09-20T02:32:10.837Z,24.63
2018-09-20T02:34:39.250Z,25.40
2018-09-20T02:37:07.681Z,18.10
2018-09-20T02:39:36.210Z,23.30
2018-09-20T02:42:04.690Z,26.40
2018-09-20T02:44:33.131Z,30.83
2018-09-20T02:47:01.559Z,29.77
2018-09-20T02:49:29.986Z,31.70
2018-09-20T02:51:58.439Z,27.03
2018-09-20T02:54:26.865Z,29.17
2018-09-20T02:56:55.316Z,30.43
2018-09-20T02:59:23.758Z,26.17
2018-09-20T03:01:52.194Z,18.57
2018-09-20T03:04:20.644Z,21.67
2018-09-20T03:06:49.078Z,29.73
2018-09-20T03:09:17.490Z,25.97
2018-09-20T03:11:45.928Z,21.90
2018-09-20T03:14:14.369Z,26.73
2018-09-20T03:16:42.816Z,21.70
2018-09-20T03:19:11.291Z,27.00
2018-09-20T03:21:39.738Z,22.90
2018-09-20T03:24:08.204Z,26.77
2018-09-20T03:26:36.657Z,25.80
2018-09-20T03:29:05.217Z,24.40
2018-09-20T03:31:33.667Z,27.53
2018-09-20T03:34:02.159Z,27.13
2018-09-20T03:36:30.579Z,25.10
2018-09-20T03:38:59.038Z,24.23
2018-09-20T03:41:27.513Z,18.90
2018-09-20T03:43:55.957Z,23.03
2018-09-20T03:46:24.403Z,27.47
2018-09-20T03:48:52.847Z,27.40
2018-09-20T03:51:21.253Z,20.10
2018-09-20T03:53:49.692Z,18.23
2018-09-20T03:56:18.104Z,23.90
2018-09-20T03:58:46.580Z,22.20
2018-09-20T04:01:14.998Z,24.00
2018-09-20T04:03:43.478Z,27.70
2018-09-20T04:06:11.908Z,23.17
2018-09-20T04:08:40.350Z,30.07
2018-09-20T04:11:08.795Z,23.67
2018-09-20T04:13:37.223Z,23.83
2018-09-20T04:16:05.656Z,25.37
2018-09-20T04:18:34.102Z,22.97
2018-09-20T04:21:02.568Z,25.80
2018-09-20T04:23:31.008Z,16.60
2018-09-20T04:25:59.466Z,20.40
2018-09-20T04:28:27.911Z,21.67
2018-09-20T04:30:56.340Z,24.60
2018-09-20T04:33:24.789Z,23.70
2018-09-20T04:35:53.250Z,22.37
2018-09-20T04:38:21.712Z,23.97
2018-09-20T04:40:50.262Z,25.50
2018-09-20T04:43:18.668Z,19.83
2018-09-20T04:45:47.106Z,18.43
2018-09-20T04:48:16.236Z,24.63
2018-09-20T04:50:44.676Z,24.40
2018-09-20T04:53:13.133Z,20.67
2018-09-20T04:55:41.600Z,26.27
2018-09-20T04:58:10.068Z,28.90
2018-09-20T05:00:38.540Z,28.70
2018-09-20T05:03:07.102Z,28.37
2018-09-20T05:05:36.454Z,18.47
2018-09-20T05:08:06.184Z,18.17
2018-09-20T05:10:34.674Z,20.77
2018-09-20T05:13:03.546Z,22.77
2018-09-20T05:15:32.358Z,19.77
2018-09-20T05:18:02.337Z,32.50
2018-09-20T05:20:30.762Z,24.70
2018-09-20T05:23:00.202Z,20.53
2018-09-20T05:25:29.173Z,24.47
2018-09-20T05:27:57.823Z,20.77
2018-09-20T05:30:26.229Z,24.30
2018-09-20T05:32:56.152Z,22.33
2018-09-20T05:35:24.629Z,27.90
2018-09-20T05:37:53.019Z,28.10
2018-09-20T05:47:14.255Z,25.40
2018-09-20T05:49:42.720Z,28.67
2018-09-20T05:52:11.183Z,20.33
2018-09-20T05:54:40.390Z,22.60
2018-09-20T05:57:08.823Z,26.43
2018-09-20T05:59:37.311Z,23.63
2018-09-20T06:02:06.465Z,23.17
2018-09-20T06:04:34.936Z,23.20
2018-09-20T06:07:03.431Z,21.67
2018-09-20T06:09:31.929Z,25.83
2018-09-20T06:12:00.374Z,21.00
2018-09-20T06:14:28.790Z,27.87
2018-09-20T06:16:57.233Z,22.47
2018-09-20T06:19:25.715Z,24.00
2018-09-20T06:21:54.235Z,23.80
2018-09-20T06:24:22.658Z,30.03
2018-09-20T06:26:51.074Z,20.40
2018-09-20T06:29:19.480Z,24.23
2018-09-20T06:31:47.914Z,28.50
2018-09-20T06:34:16.353Z,23.37
2018-09-20T06:36:44.775Z,22.30
2018-09-20T06:39:13.634Z,25.67
2018-09-20T06:41:42.660Z,23.97
2018-09-20T06:44:11.228Z,30.07
2018-09-20T06:46:39.888Z,26.87
2018-09-20T06:49:08.304Z,26.23
2018-09-20T06:51:36.714Z,28.50
2018-09-20T06:54:05.183Z,28.60
2018-09-20T06:56:33.653Z,23.63
2018-09-20T06:59:02.070Z,23.13
2018-09-20T07:01:30.524Z,21.93
2018-09-20T07:03:58.968Z,23.37
2018-09-20T07:06:27.386Z,28.03
2018-09-20T07:08:55.851Z,23.13
2018-09-20T07:11:24.285Z,24.17
2018-09-20T07:13:52.730Z,24.47
2018-09-20T07:16:21.162Z,22.03
2018-09-20T07:18:49.663Z,21.00
2018-09-20T07:21:18.137Z,24.63
2018-09-20T07:23:46.584Z,19.60
2018-09-20T07:26:15.020Z,22.50
2018-09-20T07:28:43.487Z,25.90
2018-09-20T07:31:12.004Z,23.77
2018-09-20T07:33:40.477Z,23.63
2018-09-20T07:36:08.935Z,17.93
2018-09-20T07:38:37.445Z,21.70
2018-09-20T07:41:05.906Z,29.20
2018-09-20T07:43:34.407Z,24.73
2018-09-20T07:46:02.827Z,23.27
2018-09-20T07:48:31.288Z,20.23
2018-09-20T07:50:59.707Z,21.10
2018-09-20T07:53:28.110Z,19.73
2018-09-20T07:55:56.551Z,17.83
2018-09-20T07:58:24.991Z,24.17
2018-09-20T08:00:53.515Z,24.80
2018-09-20T08:03:22.126Z,25.77
2018-09-20T08:05:50.613Z,18.77
2018-09-20T08:08:19.288Z,21.27
2018-09-20T08:10:47.755Z,18.30
2018-09-20T08:13:16.246Z,25.03
2018-09-20T08:15:44.730Z,28.30
2018-09-20T08:18:13.238Z,25.37
2018-09-20T08:20:41.676Z,24.37
2018-09-20T08:23:10.104Z,24.57
2018-09-20T08:25:38.989Z,24.43
2018-09-20T08:28:07.627Z,24.47
2018-09-20T08:30:36.130Z,20.47
2018-09-20T08:33:04.633Z,24.27
2018-09-20T08:35:33.058Z,24.03
2018-09-20T08:38:01.524Z,23.43
2018-09-20T08:40:29.974Z,26.60
2018-09-20T08:42:58.412Z,20.43
2018-09-20T08:45:26.830Z,22.97
2018-09-20T08:47:55.281Z,16.33
2018-09-20T08:50:23.708Z,25.00
2018-09-20T08:52:52.169Z,23.13
2018-09-20T08:55:20.592Z,25.63
2018-09-20T08:57:55.483Z,26.00
2018-09-20T09:00:24.275Z,21.93
2018-09-20T09:02:52.757Z,23.53
2018-09-20T09:05:21.281Z,21.90
2018-09-20T09:07:50.005Z,24.97
2018-09-20T09:10:18.521Z,17.37
2018-09-20T09:12:47.049Z,20.60
2018-09-20T09:15:15.561Z,19.47
2018-09-20T09:17:44.039Z,25.87
2018-09-20T09:20:12.566Z,18.00
2018-09-20T09:22:42.197Z,24.07
2018-09-20T09:25:10.661Z,22.77
2018-09-20T09:27:39.077Z,18.00
2018-09-20T09:30:07.585Z,23.30
2018-09-20T09:32:36.070Z,23.10
2018-09-20T09:35:04.592Z,17.07
2018-09-20T09:37:33.114Z,26.17
2018-09-20T09:40:01.628Z,20.37
2018-09-20T09:42:30.117Z,26.60
2018-09-20T09:44:58.584Z,25.83
2018-09-20T09:47:27.033Z,21.37
2018-09-20T09:49:55.472Z,18.20
2018-09-20T09:52:24.088Z,17.70
2018-09-20T09:54:52.614Z,18.97
2018-09-20T09:57:21.021Z,21.23
2018-09-20T09:59:49.513Z,21.00
2018-09-20T10:02:17.942Z,21.43
2018-09-20T10:04:46.408Z,24.37
2018-09-20T10:07:14.909Z,18.07
2018-09-20T10:09:43.320Z,21.97
2018-09-20T10:12:11.790Z,17.97
2018-09-20T10:14:40.230Z,19.17
2018-09-20T10:17:08.716Z,16.40
2018-09-20T10:19:37.158Z,22.03
2018-09-20T10:22:05.627Z,26.23
2018-09-20T10:24:34.088Z,21.83
2018-09-20T10:27:02.538Z,22.80
2018-09-20T10:29:30.976Z,15.17
2018-09-20T10:31:59.430Z,21.43
2018-09-20T10:34:27.850Z,19.90
2018-09-20T10:36:56.315Z,19.83
2018-09-20T10:39:24.731Z,21.30
2018-09-20T10:41:53.242Z,13.10
2018-09-20T10:44:21.751Z,16.33
2018-09-20T10:46:50.207Z,19.60
2018-09-20T10:49:18.653Z,18.90
2018-09-20T10:51:47.090Z,18.90
2018-09-20T10:54:15.537Z,15.40
2018-09-20T10:56:43.962Z,18.80
2018-09-20T10:59:12.435Z,15.13
2018-09-20T11:01:40.953Z,19.10
2018-09-20T11:04:09.400Z,17.17
2018-09-20T11:06:37.833Z,23.83
2018-09-20T11:09:08.875Z,19.90
2018-09-20T11:11:37.405Z,15.20
2018-09-20T11:14:06.068Z,17.50
2018-09-20T11:16:34.512Z,22.13
2018-09-20T11:19:02.975Z,15.37
2018-09-20T11:21:31.442Z,16.90
2018-09-20T11:23:59.873Z,18.67
2018-09-20T11:26:28.311Z,18.10
2018-09-20T11:28:56.778Z,23.73
2018-09-20T11:31:25.257Z,19.87
2018-09-20T11:33:53.743Z,17.03
2018-09-20T11:36:22.296Z,16.23
2018-09-20T11:38:50.724Z,18.97
2018-09-20T11:41:19.237Z,14.03
2018-09-20T11:43:48.129Z,13.83
2018-09-20T11:46:16.548Z,15.57
2018-09-20T11:48:45.019Z,16.10
2018-09-20T11:51:13.487Z,17.23
2018-09-20T11:53:41.924Z,16.50
2018-09-20T11:56:10.385Z,14.37
2018-09-20T11:58:38.847Z,12.23
2018-09-20T12:01:07.294Z,26.10
2018-09-20T12:03:35.806Z,13.63
2018-09-20T12:06:04.290Z,12.90
2018-09-20T12:08:32.803Z,12.60
2018-09-20T12:11:01.206Z,16.63
2018-09-20T12:13:29.662Z,17.30
2018-09-20T12:15:58.112Z,18.87
2018-09-20T12:18:26.560Z,16.90
2018-09-20T12:20:55.016Z,17.47
2018-09-20T12:23:23.454Z,14.87
2018-09-20T12:25:51.947Z,17.20
2018-09-20T12:28:20.381Z,11.90
2018-09-20T12:30:48.855Z,18.43
2018-09-20T12:33:17.374Z,15.37
2018-09-20T12:35:45.881Z,13.47
2018-09-20T12:38:14.342Z,18.57
2018-09-20T12:40:42.776Z,15.03
2018-09-20T12:43:11.259Z,18.47
2018-09-20T12:45:39.713Z,14.70
2018-09-20T12:48:08.192Z,19.90
2018-09-20T12:50:36.621Z,16.27
2018-09-20T12:53:05.243Z,16.97
2018-09-20T12:55:33.739Z,15.63
2018-09-20T12:58:02.186Z,12.97
2018-09-20T13:00:30.649Z,15.73
2018-09-20T13:02:59.164Z,14.27
2018-09-20T13:05:27.779Z,13.13
2018-09-20T13:07:56.231Z,11.10
2018-09-20T13:10:24.667Z,16.97
2018-09-20T13:12:53.139Z,12.93
2018-09-20T13:15:21.567Z,16.23
2018-09-20T13:17:50.001Z,15.17
2018-09-20T13:20:18.527Z,15.77
2018-09-20T13:22:46.977Z,14.30
2018-09-20T13:25:15.576Z,15.77
2018-09-20T13:27:44.195Z,11.50
2018-09-20T13:30:12.658Z,13.03
2018-09-20T13:32:41.107Z,14.03
2018-09-20T13:35:09.578Z,12.43
2018-09-20T13:37:38.091Z,13.00
2018-09-20T13:40:06.608Z,11.33
2018-09-20T13:42:35.066Z,17.00
2018-09-20T13:45:03.602Z,13.37
2018-09-20T13:47:32.101Z,20.53
2018-09-20T13:50:00.551Z,16.40
2018-09-20T13:52:29.041Z,12.33
2018-09-20T13:55:04.315Z,16.13
2018-09-20T13:57:32.751Z,11.20
2018-09-20T14:00:01.279Z,14.40
2018-09-20T14:02:29.731Z,14.50
2018-09-20T14:05:05.021Z,12.10
2018-09-20T14:07:33.595Z,16.80
2018-09-20T14:10:02.037Z,18.70
2018-09-20T14:12:30.507Z,10.50
2018-09-20T14:14:58.954Z,11.70
2018-09-20T14:17:27.412Z,8.97
2018-09-20T14:19:55.852Z,8.03
2018-09-20T14:22:24.274Z,11.70
2018-09-20T14:24:52.734Z,13.20
2018-09-20T14:27:21.208Z,14.57
2018-09-20T14:29:49.684Z,13.13
2018-09-20T14:32:18.120Z,9.73
2018-09-20T14:34:46.604Z,17.43
2018-09-20T14:37:15.040Z,13.30
2018-09-20T14:39:43.480Z,11.23
2018-09-20T14:42:11.950Z,14.23
2018-09-20T14:44:40.411Z,14.63
2018-09-20T14:47:08.966Z,17.27
2018-09-20T14:49:37.523Z,9.80
2018-09-20T14:52:06.077Z,13.23
2018-09-20T14:54:34.504Z,13.87
2018-09-20T14:57:03.000Z,14.43
2018-09-20T14:59:31.436Z,18.83
2018-09-20T15:01:59.882Z,16.87
2018-09-20T15:04:28.424Z,11.43
2018-09-20T15:06:56.862Z,13.83
2018-09-20T15:09:25.324Z,10.87
2018-09-20T15:11:53.834Z,20.23
2018-09-20T15:14:22.302Z,19.40
2018-09-20T15:16:50.764Z,9.77
2018-09-20T15:19:19.326Z,15.20
2018-09-20T15:21:47.797Z,13.20
2018-09-20T15:24:16.305Z,13.57
2018-09-20T15:26:44.768Z,21.77
2018-09-20T15:29:13.236Z,14.73
2018-09-20T15:31:41.762Z,14.70
2018-09-20T15:34:10.238Z,12.40
2018-09-20T15:36:38.756Z,13.97
2018-09-20T15:39:09.280Z,12.93
2018-09-20T15:41:37.758Z,14.63
2018-09-20T15:44:06.217Z,16.83
2018-09-20T15:46:34.716Z,13.03
2018-09-20T15:49:03.474Z,15.90
2018-09-20T15:51:31.966Z,15.50
2018-09-20T15:54:00.506Z,14.97
2018-09-20T15:56:28.979Z,13.77
2018-09-20T15:58:57.456Z,12.43
2018-09-20T16:01:25.915Z,12.50
2018-09-20T16:03:54.347Z,13.10
2018-09-20T16:06:22.816Z,12.07
2018-09-20T16:08:51.905Z,14.90
2018-09-20T16:11:20.342Z,9.97
2018-09-20T16:13:48.822Z,11.87
2018-09-20T16:16:17.280Z,12.40
2018-09-20T16:18:45.780Z,9.23
2018-09-20T16:21:14.286Z,13.47
2018-09-20T16:23:42.746Z,11.77
2018-09-20T16:26:11.210Z,12.60
2018-09-20T16:28:56.431Z,11.10
2018-09-20T16:32:39.232Z,16.83
2018-09-20T16:36:21.681Z,14.53
2018-09-20T16:39:00.737Z,12.77
2018-09-20T16:41:34.610Z,9.60
2018-09-20T16:44:03.181Z,11.40
2018-09-20T16:46:31.784Z,9.93
2018-09-20T16:49:00.410Z,15.20
2018-09-20T16:51:28.893Z,12.03
2018-09-20T16:53:57.372Z,11.17
2018-09-20T16:56:25.809Z,9.73
2018-09-20T16:58:54.777Z,13.60
2018-09-20T17:01:23.657Z,12.07
2018-09-20T17:03:52.125Z,10.67
2018-09-20T17:06:20.929Z,10.10
2018-09-20T17:08:50.009Z,10.30
2018-09-20T17:11:18.427Z,13.63
2018-09-20T17:13:47.077Z,11.73
2018-09-20T17:16:15.622Z,15.03
2018-09-20T17:18:44.028Z,22.60
2018-09-20T17:21:12.494Z,11.73
2018-09-20T17:23:41.146Z,16.57
2018-09-20T17:26:09.753Z,11.17
2018-09-20T17:28:38.536Z,13.60
2018-09-20T17:31:07.288Z,10.90
2018-09-20T17:33:35.731Z,11.73
2018-09-20T17:36:04.230Z,11.43
2018-09-20T17:38:33.692Z,12.30
2018-09-20T17:41:39.606Z,13.37
2018-09-20T17:44:08.879Z,14.97
2018-09-20T17:46:37.355Z,10.73
2018-09-20T17:49:05.926Z,8.87
2018-09-20T17:51:34.841Z,10.47
2018-09-20T17:54:03.534Z,10.80
2018-09-20T17:56:32.440Z,11.07
2018-09-20T17:59:01.271Z,10.17
2018-09-20T18:01:29.757Z,11.53
2018-09-20T18:03:58.220Z,18.13
2018-09-20T18:06:26.677Z,13.43
2018-09-20T18:08:55.139Z,12.60
2018-09-20T18:11:23.633Z,17.00
2018-09-20T18:13:52.093Z,9.77
2018-09-20T18:16:20.593Z,14.83
2018-09-20T18:18:49.098Z,17.27
2018-09-20T18:21:17.597Z,13.13
2018-09-20T18:23:46.048Z,17.73
2018-09-20T18:26:14.527Z,13.70
2018-09-20T18:28:43.007Z,12.43
2018-09-20T18:31:11.457Z,10.33
2018-09-20T18:33:39.975Z,14.60
2018-09-20T18:36:08.485Z,14.20
2018-09-20T18:38:37.057Z,14.83
2018-09-20T18:41:05.563Z,13.73
2018-09-20T18:43:34.022Z,14.67
2018-09-20T18:46:02.500Z,13.30
2018-09-20T18:48:30.985Z,19.17
2018-09-20T18:50:59.462Z,12.40
2018-09-20T18:53:27.900Z,18.20
2018-09-20T18:55:56.355Z,15.03
2018-09-20T18:58:24.833Z,14.87
2018-09-20T19:00:53.836Z,11.97
2018-09-20T19:03:23.219Z,13.30
2018-09-20T19:05:51.688Z,13.63
2018-09-20T19:08:20.504Z,16.53
2018-09-20T19:10:49.076Z,12.93
2018-09-20T19:13:17.602Z,17.10
2018-09-20T19:15:46.152Z,16.90
2018-09-20T19:18:14.626Z,16.93
2018-09-20T19:20:43.145Z,14.93
2018-09-20T19:23:11.653Z,13.80
2018-09-20T19:25:40.184Z,13.20
2018-09-20T19:28:08.783Z,13.93
2018-09-20T19:30:37.232Z,20.33
2018-09-20T19:33:05.730Z,15.13
2018-09-20T19:35:34.258Z,14.93
2018-09-20T19:38:02.769Z,15.00
2018-09-20T19:40:31.256Z,14.83
2018-09-20T19:42:59.730Z,13.77
2018-09-20T19:45:28.203Z,12.73
2018-09-20T19:47:56.640Z,12.43
2018-09-20T19:50:25.086Z,17.40
2018-09-20T19:52:53.570Z,17.23
2018-09-20T19:55:22.063Z,13.40
2018-09-20T19:57:50.550Z,13.37
2018-09-20T20:00:19.073Z,14.70
2018-09-20T20:02:47.544Z,16.53
2018-09-20T20:05:16.015Z,22.70
2018-09-20T20:07:44.549Z,12.20
2018-09-20T20:10:12.989Z,11.67
2018-09-20T20:12:41.431Z,14.10
2018-09-20T20:15:09.878Z,13.73
2018-09-20T20:17:38.354Z,15.17
2018-09-20T20:20:06.950Z,18.43
2018-09-20T20:22:35.513Z,18.87
2018-09-20T20:25:04.063Z,14.87
2018-09-20T20:27:32.523Z,13.33
2018-09-20T20:30:00.970Z,14.93
2018-09-20T20:32:29.458Z,15.43
2018-09-20T20:34:57.903Z,14.23
2018-09-20T20:37:26.407Z,12.33
2018-09-20T20:39:55.005Z,12.03
2018-09-20T20:42:23.397Z,16.30
2018-09-20T20:44:51.901Z,13.13
2018-09-20T20:47:20.368Z,13.47
2018-09-20T20:49:48.806Z,13.40
2018-09-20T20:52:17.269Z,12.20
2018-09-20T20:54:45.735Z,13.60
2018-09-20T20:57:14.194Z,11.77
2018-09-20T20:59:45.514Z,19.23
2018-09-20T21:02:13.926Z,12.80
2018-09-20T21:04:42.362Z,16.27
2018-09-20T21:07:10.825Z,15.50
2018-09-20T21:09:39.317Z,14.43
2018-09-20T21:12:07.784Z,15.37
2018-09-20T21:14:36.253Z,15.60
2018-09-20T21:17:04.740Z,9.37
2018-09-20T21:19:33.181Z,11.47
2018-09-20T21:22:01.641Z,11.37
2018-09-20T21:24:30.100Z,10.47
2018-09-20T21:26:58.555Z,11.30
2018-09-20T21:29:27.007Z,13.97
2018-09-20T21:31:55.428Z,14.50
2018-09-20T21:34:23.905Z,11.73
2018-09-20T21:36:52.441Z,13.80
2018-09-20T21:39:20.871Z,20.70
2018-09-20T21:41:49.351Z,12.33
2018-09-20T21:44:17.785Z,10.47
2018-09-20T21:46:46.231Z,11.67
2018-09-20T21:49:14.724Z,14.20
2018-09-20T21:51:43.169Z,13.23
2018-09-20T21:54:11.644Z,11.80
2018-09-20T21:56:40.125Z,7.90
2018-09-20T21:59:08.584Z,12.20
2018-09-20T22:01:42.417Z,16.97
2018-09-20T22:04:10.900Z,8.77
2018-09-20T22:06:39.396Z,14.20
2018-09-20T22:09:10.228Z,10.10
2018-09-20T22:11:39.282Z,19.00
2018-09-20T22:14:07.818Z,8.40
2018-09-20T22:16:36.544Z,10.77
2018-09-20T22:19:05.128Z,10.10
2018-09-20T22:21:33.918Z,11.60
2018-09-20T22:24:02.392Z,13.87
2018-09-20T22:26:30.919Z,14.17
2018-09-20T22:28:59.431Z,10.90
2018-09-20T22:31:27.944Z,10.17
2018-09-20T22:33:56.416Z,9.67
2018-09-20T22:36:24.895Z,11.63
2018-09-20T22:38:53.335Z,9.83
2018-09-20T22:41:21.809Z,11.23
2018-09-20T22:43:50.295Z,7.77
2018-09-20T22:46:18.903Z,11.50
2018-09-20T22:48:47.426Z,16.63
2018-09-20T22:51:15.925Z,14.77
2018-09-20T22:53:44.467Z,13.23
2018-09-20T22:56:12.901Z,13.87
2018-09-20T22:58:41.379Z,9.90
2018-09-20T23:01:14.060Z,9.67
2018-09-20T23:03:42.867Z,10.80
2018-09-20T23:06:11.355Z,10.53
2018-09-20T23:08:39.818Z,14.83
2018-09-20T23:11:08.298Z,14.80
2018-09-20T23:13:36.764Z,11.10
2018-09-20T23:16:05.241Z,12.77
2018-09-20T23:18:33.731Z,11.20
2018-09-20T23:21:02.205Z,10.60
2018-09-20T23:23:30.678Z,13.07
2018-09-20T23:25:59.122Z,12.13
2018-09-20T23:28:27.602Z,11.83
2018-09-20T23:30:56.083Z,14.20
2018-09-20T23:33:24.567Z,12.77
2018-09-20T23:35:53.167Z,9.80
2018-09-20T23:38:21.691Z,36.37
2018-09-20T23:40:50.164Z,12.03
2018-09-20T23:43:18.583Z,9.70
2018-09-20T23:45:47.013Z,8.30
2018-09-20T23:48:15.458Z,13.43
2018-09-20T23:50:43.917Z,9.57
2018-09-20T23:53:12.330Z,13.10
2018-09-20T23:55:40.775Z,13.57
2018-09-20T23:58:09.249Z,11.80
